| time (UTC) | temp C | wind direction | speed KPH | gust KPH | rain 1hr cm | rain 24hr cm | rain mn cm | humidity % | barometer mb |
| 20260906232519 | 26 | 326 | 0.0 | 0.0 | 0.00 | 0.33 | 0.33 | 78 | 1014.5 |
| 20260906232015 | 26 | 326 | 0.0 | 0.0 | 0.00 | 0.33 | 0.33 | 77 | 1014.5 |
| 20260906231510 | 26 | 326 | 0.0 | 0.0 | 0.00 | 0.33 | 0.33 | 74 | 1014.5 |
| 20260906231006 | 26 | 326 | 0.0 | 0.0 | 0.00 | 0.33 | 0.33 | 77 | 1014.5 |
| 20260906230506 | 26 | 326 | 0.0 | 0.0 | 0.00 | 0.33 | 0.33 | 79 | 1014.4 |
| 20260906230016 | 26 | 326 | 0.0 | 1.6 | 0.00 | 0.33 | 0.33 | 74 | 1014.4 |
| 20260906225509 | 25 | 326 | 0.0 | 1.6 | 0.00 | 0.33 | 0.33 | 78 | 1014.4 |
| 20260906225011 | 25 | 326 | 1.6 | 1.6 | 0.00 | 0.33 | 0.33 | 80 | 1014.5 |
| 20260906224524 | 26 | 98 | 0.0 | 0.0 | 0.00 | 0.33 | 0.33 | 80 | 1014.6 |
| 20260906224015 | 26 | 98 | 0.0 | 1.6 | 0.00 | 0.33 | 0.33 | 78 | 1014.8 |
| 20260906223512 | 25 | 98 | 0.0 | 1.6 | 0.00 | 0.33 | 0.33 | 80 | 1014.8 |
| 20260906223031 | 25 | 98 | 0.0 | 1.6 | 0.00 | 0.33 | 0.33 | 82 | 1014.9 |
| 20260906222513 | 25 | 129 | 0.0 | 0.0 | 0.00 | 0.33 | 0.33 | 81 | 1015.1 |
| 20260906222016 | 25 | 129 | 0.0 | 0.0 | 0.00 | 0.33 | 0.33 | 83 | 1015.2 |
| 20260906221530 | 25 | 129 | 0.0 | 0.0 | 0.00 | 0.33 | 0.33 | 81 | 1015.2 |
| 20260906221016 | 25 | 129 | 0.0 | 0.0 | 0.00 | 0.33 | 0.33 | 84 | 1015.3 |
| 20260906220504 | 25 | 129 | 0.0 | 0.0 | 0.00 | 0.33 | 0.33 | 83 | 1015.4 |
| 20260906220012 | 24 | 129 | 0.0 | 0.0 | 0.00 | 0.33 | 0.33 | 82 | 1015.4 |
| 20260906215508 | 25 | 129 | 0.0 | 0.0 | 0.00 | 0.33 | 0.33 | 85 | 1015.5 |
| 20260906215008 | 25 | 129 | 0.0 | 0.0 | 0.00 | 0.33 | 0.33 | 84 | 1015.5 |
| 20260906214523 | 25 | 129 | 0.0 | 0.0 | 0.03 | 0.33 | 0.33 | 86 | 1015.5 |
| 20260906214011 | 24 | 129 | 0.0 | 1.6 | 0.03 | 0.33 | 0.33 | 84 | 1015.5 |
| 20260906213512 | 24 | 129 | 0.0 | 3.2 | 0.05 | 0.33 | 0.33 | 83 | 1015.6 |
| 20260906213029 | 23 | 127 | 0.0 | 3.2 | 0.05 | 0.33 | 0.33 | 85 | 1015.7 |
| 20260906212515 | 23 | 158 | 0.0 | 3.2 | 0.05 | 0.33 | 0.33 | 84 | 1015.7 |
| 20260906212014 | 23 | 172 | 0.0 | 3.2 | 0.08 | 0.33 | 0.33 | 85 | 1015.8 |
| 20260906211530 | 23 | 85 | 0.0 | 3.2 | 0.10 | 0.33 | 0.33 | 87 | 1015.9 |
| 20260906211015 | 23 | 156 | 1.6 | 6.4 | 0.18 | 0.33 | 0.33 | 87 | 1016.0 |
| 20260906210516 | 23 | 147 | 0.0 | 6.4 | 0.20 | 0.33 | 0.33 | 87 | 1016.1 |
| 20260906210032 | 22 | 129 | 0.0 | 4.8 | 0.23 | 0.33 | 0.33 | 87 | 1016.1 |
| 20260906205519 | 22 | 150 | 1.6 | 4.8 | 0.28 | 0.33 | 0.33 | 87 | 1016.2 |
| 20260906205010 | 22 | 134 | 0.0 | 4.8 | 0.30 | 0.33 | 0.33 | 88 | 1016.3 |
| 20260906204515 | 22 | 237 | 0.0 | 6.4 | 0.30 | 0.30 | 0.30 | 87 | 1016.4 |
| 20260906204006 | 22 | 166 | 3.2 | 6.4 | 0.30 | 0.30 | 0.30 | 87 | 1016.6 |
| 20260906203511 | 22 | 162 | 3.2 | 6.4 | 0.28 | 0.28 | 0.28 | 87 | 1016.6 |
| 20260906203023 | 22 | 179 | 1.6 | 4.8 | 0.28 | 0.28 | 0.28 | 88 | 1016.7 |
| 20260906202511 | 22 | 148 | 0.0 | 6.4 | 0.28 | 0.28 | 0.28 | 87 | 1016.7 |
| 20260906202013 | 22 | 256 | 1.6 | 8.0 | 0.25 | 0.25 | 0.25 | 87 | 1016.7 |
| 20260906201527 | 23 | 141 | 3.2 | 9.7 | 0.23 | 0.23 | 0.23 | 84 | 1016.6 |
| 20260906201015 | 23 | 136 | 4.8 | 9.7 | 0.15 | 0.15 | 0.15 | 84 | 1016.7 |
| 20260906200515 | 23 | 140 | 0.0 | 8.0 | 0.13 | 0.13 | 0.13 | 85 | 1016.6 |
| 20260906200030 | 23 | 160 | 1.6 | 11.3 | 0.10 | 0.10 | 0.10 | 85 | 1016.6 |
| 20260906195516 | 23 | 68 | 3.2 | 11.3 | 0.05 | 0.05 | 0.05 | 84 | 1016.7 |
| 20260906195018 | 24 | 41 | 3.2 | 11.3 | 0.03 | 0.03 | 0.03 | 82 | 1016.5 |
| 20260906194533 | 25 | 108 | 4.8 | 11.3 | 0.00 | 0.00 | 0.00 | 80 | 1016.4 |
| 20260906194015 | 26 | 64 | 3.2 | 12.9 | 0.00 | 0.00 | 0.00 | 75 | 1015.9 |
| 20260906193506 | 26 | 82 | 4.8 | 14.5 | 0.00 | 0.00 | 0.00 | 72 | 1015.9 |
| 20260906193017 | 27 | 57 | 4.8 | 14.5 | 0.00 | 0.00 | 0.00 | 68 | 1015.9 |
| 20260906192510 | 28 | 86 | 4.8 | 14.5 | 0.00 | 0.00 | 0.00 | 66 | 1015.8 |
| 20260906192010 | 28 | 73 | 4.8 | 11.3 | 0.00 | 0.00 | 0.00 | 63 | 1015.9 |
| 20260906191528 | 29 | 79 | 4.8 | 11.3 | 0.00 | 0.00 | 0.00 | 62 | 1016.0 |
| 20260906191010 | 29 | 110 | 0.0 | 11.3 | 0.00 | 0.00 | 0.00 | 63 | 1016.0 |
| 20260906190519 | 29 | 62 | 3.2 | 17.7 | 0.00 | 0.00 | 0.00 | 62 | 1016.1 |
| 20260906190031 | 29 | 356 | 8.0 | 17.7 | 0.00 | 0.00 | 0.00 | 60 | 1016.1 |
| 20260906185513 | 30 | 31 | 9.7 | 17.7 | 0.00 | 0.00 | 0.00 | 58 | 1016.1 |
| 20260906185016 | 30 | 21 | 9.7 | 17.7 | 0.00 | 0.00 | 0.00 | 57 | 1016.1 |
| 20260906184533 | 31 | 5 | 6.4 | 17.7 | 0.00 | 0.00 | 0.00 | 55 | 1016.2 |
| 20260906184016 | 31 | 95 | 3.2 | 11.3 | 0.00 | 0.00 | 0.00 | 51 | 1016.3 |
| 20260906183514 | 31 | 144 | 4.8 | 12.9 | 0.00 | 0.00 | 0.00 | 51 | 1016.3 |
| 20260906183036 | 31 | 119 | 4.8 | 12.9 | 0.00 | 0.00 | 0.00 | 50 | 1016.4 |
| 20260906182519 | 31 | 101 | 6.4 | 12.9 | 0.00 | 0.00 | 0.00 | 51 | 1016.4 |
| 20260906182006 | 32 | 134 | 3.2 | 9.7 | 0.00 | 0.00 | 0.00 | 51 | 1016.4 |
| 20260906181517 | 31 | 172 | 3.2 | 9.7 | 0.00 | 0.00 | 0.00 | 53 | 1016.4 |
| 20260906181010 | 31 | 129 | 1.6 | 4.8 | 0.00 | 0.00 | 0.00 | 53 | 1016.6 |
| 20260906180513 | 31 | 301 | 1.6 | 4.8 | 0.00 | 0.00 | 0.00 | 53 | 1016.6 |
| 20260906180051 | 31 | 303 | 1.6 | 4.8 | 0.00 | 0.00 | 0.00 | 54 | 1016.7 |
| 20260906175515 | 31 | 323 | 1.6 | 4.8 | 0.00 | 0.00 | 0.00 | 53 | 1016.8 |
| 20260906175013 | 31 | 323 | 1.6 | 8.0 | 0.00 | 0.00 | 0.00 | 53 | 1017.0 |
| 20260906174534 | 31 | 104 | 3.2 | 9.7 | 0.00 | 0.00 | 0.00 | 52 | 1017.0 |
| 20260906174014 | 31 | 162 | 3.2 | 9.7 | 0.00 | 0.00 | 0.00 | 52 | 1017.1 |
| 20260906173514 | 31 | 152 | 3.2 | 8.0 | 0.00 | 0.00 | 0.00 | 52 | 1017.1 |
| 20260906173031 | 31 | 129 | 0.0 | 9.7 | 0.00 | 0.00 | 0.00 | 52 | 1017.3 |
| 20260906172513 | 31 | 291 | 4.8 | 9.7 | 0.00 | 0.00 | 0.00 | 52 | 1017.3 |
| 20260906172019 | 32 | 148 | 4.8 | 9.7 | 0.00 | 0.00 | 0.00 | 50 | 1017.3 |
| 20260906171534 | 32 | 232 | 1.6 | 4.8 | 0.00 | 0.00 | 0.00 | 49 | 1017.4 |
| 20260906171018 | 32 | 355 | 3.2 | 11.3 | 0.00 | 0.00 | 0.00 | 51 | 1017.4 |
| 20260906170511 | 32 | 91 | 1.6 | 11.3 | 0.00 | 0.00 | 0.00 | 50 | 1017.5 |
| 20260906170023 | 31 | 284 | 1.6 | 9.7 | 0.00 | 0.00 | 0.00 | 52 | 1017.4 |
| 20260906165512 | 31 | 152 | 4.8 | 12.9 | 0.00 | 0.00 | 0.00 | 52 | 1017.5 |
| 20260906165011 | 31 | 169 | 3.2 | 12.9 | 0.00 | 0.00 | 0.00 | 53 | 1017.5 |
| 20260906164526 | 31 | 228 | 3.2 | 12.9 | 0.00 | 0.00 | 0.00 | 53 | 1017.5 |
| 20260906164010 | 31 | 148 | 3.2 | 8.0 | 0.00 | 0.00 | 0.00 | 53 | 1017.5 |
| 20260906163514 | 31 | 124 | 3.2 | 9.7 | 0.00 | 0.00 | 0.00 | 53 | 1017.5 |
| 20260906163028 | 31 | 73 | 1.6 | 9.7 | 0.00 | 0.00 | 0.00 | 56 | 1017.5 |
| 20260906162517 | 31 | 181 | 4.8 | 9.7 | 0.00 | 0.00 | 0.00 | 56 | 1017.6 |
| 20260906162016 | 30 | 144 | 3.2 | 17.7 | 0.00 | 0.00 | 0.00 | 58 | 1017.6 |
| 20260906161533 | 30 | 157 | 3.2 | 17.7 | 0.00 | 0.00 | 0.00 | 58 | 1017.6 |
| 20260906161018 | 31 | 139 | 3.2 | 6.4 | 0.00 | 0.00 | 0.00 | 57 | 1017.5 |
| 20260906160517 | 31 | 207 | 3.2 | 11.3 | 0.00 | 0.00 | 0.00 | 57 | 1017.6 |
| 20260906160038 | 31 | 208 | 3.2 | 11.3 | 0.00 | 0.00 | 0.00 | 59 | 1017.6 |
| 20260906155520 | 30 | 250 | 1.6 | 9.7 | 0.00 | 0.00 | 0.00 | 59 | 1017.6 |
| 20260906155015 | 30 | 233 | 1.6 | 9.7 | 0.00 | 0.00 | 0.00 | 59 | 1017.5 |
| 20260906154526 | 30 | 113 | 3.2 | 9.7 | 0.00 | 0.00 | 0.00 | 60 | 1017.5 |
| 20260906154012 | 30 | 241 | 3.2 | 9.7 | 0.00 | 0.00 | 0.00 | 62 | 1017.4 |
| 20260906153514 | 29 | 266 | 3.2 | 9.7 | 0.00 | 0.00 | 0.00 | 63 | 1017.4 |
| 20260906153027 | 29 | 141 | 1.6 | 9.7 | 0.00 | 0.00 | 0.00 | 64 | 1017.4 |
| 20260906152512 | 28 | 330 | 1.6 | 9.7 | 0.00 | 0.00 | 0.00 | 64 | 1017.3 |
| 20260906152002 | 28 | 251 | 4.8 | 9.7 | 0.00 | 0.00 | 0.00 | 64 | 1017.2 |
| 20260906151506 | 28 | 193 | 4.8 | 9.7 | 0.00 | 0.00 | 0.00 | 64 | 1017.2 |
| 20260906151005 | 28 | 330 | 4.8 | 11.3 | 0.00 | 0.00 | 0.00 | 65 | 1017.3 |
| 20260906150507 | 28 | 158 | 4.8 | 11.3 | 0.00 | 0.00 | 0.00 | 67 | 1017.2 |
| 20260906150022 | 27 | 205 | 3.2 | 8.0 | 0.00 | 0.00 | 0.00 | 68 | 1017.2 |
| 20260906145506 | 28 | 156 | 4.8 | 8.0 | 0.00 | 0.00 | 0.00 | 67 | 1017.3 |
| 20260906145006 | 27 | 207 | 4.8 | 8.0 | 0.00 | 0.00 | 0.00 | 68 | 1017.2 |
| 20260906144521 | 27 | 82 | 1.6 | 6.4 | 0.00 | 0.00 | 0.00 | 69 | 1017.2 |
| 20260906144010 | 27 | 165 | 3.2 | 4.8 | 0.00 | 0.00 | 0.00 | 69 | 1017.2 |
| 20260906143510 | 27 | 108 | 3.2 | 12.9 | 0.00 | 0.00 | 0.00 | 70 | 1017.1 |
| 20260906143032 | 27 | 200 | 1.6 | 12.9 | 0.00 | 0.00 | 0.00 | 71 | 1017.0 |
| 20260906142509 | 27 | 114 | 4.8 | 11.3 | 0.00 | 0.00 | 0.00 | 71 | 1017.0 |
| 20260906142015 | 27 | 159 | 3.2 | 6.4 | 0.00 | 0.00 | 0.00 | 71 | 1017.0 |
| 20260906141503 | 26 | 207 | 0.0 | 9.7 | 0.00 | 0.00 | 0.00 | 73 | 1017.0 |
| 20260906141002 | 26 | 165 | 3.2 | 9.7 | 0.00 | 0.00 | 0.00 | 73 | 1017.0 |
| 20260906140504 | 26 | 146 | 4.8 | 9.7 | 0.00 | 0.00 | 0.00 | 73 | 1017.0 |
| 20260906140011 | 26 | 150 | 4.8 | 8.0 | 0.00 | 0.00 | 0.00 | 73 | 1017.0 |
| 20260906135506 | 26 | 159 | 4.8 | 8.0 | 0.00 | 0.00 | 0.00 | 72 | 1017.0 |
| 20260906135006 | 26 | 13 | 1.6 | 6.4 | 0.00 | 0.00 | 0.00 | 73 | 1016.8 |
| 20260906134512 | 26 | 231 | 1.6 | 6.4 | 0.00 | 0.00 | 0.00 | 73 | 1016.8 |
| 20260906134006 | 26 | 311 | 1.6 | 6.4 | 0.00 | 0.00 | 0.00 | 73 | 1016.6 |
| 20260906133509 | 26 | 186 | 1.6 | 6.4 | 0.00 | 0.00 | 0.00 | 73 | 1016.5 |
| 20260906133020 | 26 | 145 | 1.6 | 4.8 | 0.00 | 0.00 | 0.00 | 73 | 1016.5 |
| 20260906132513 | 26 | 244 | 1.6 | 4.8 | 0.00 | 0.00 | 0.00 | 73 | 1016.4 |
| 20260906132012 | 26 | 184 | 0.0 | 1.6 | 0.00 | 0.00 | 0.00 | 74 | 1016.5 |
| 20260906131539 | 26 | 150 | 0.0 | 1.6 | 0.00 | 0.00 | 0.00 | 74 | 1016.4 |
| 20260906131011 | 25 | 189 | 0.0 | 1.6 | 0.00 | 0.00 | 0.00 | 76 | 1016.4 |
| 20260906130513 | 25 | 191 | 0.0 | 1.6 | 0.00 | 0.00 | 0.00 | 77 | 1016.3 |
| 20260906130007 | 25 | 200 | 0.0 | 0.0 | 0.00 | 0.00 | 0.00 | 78 | 1016.3 |
| 20260906125507 | 24 | 203 | 0.0 | 0.0 | 0.00 | 0.00 | 0.00 | 80 | 1016.2 |
| 20260906125002 | 23 | 203 | 0.0 | 0.0 | 0.00 | 0.00 | 0.00 | 81 | 1016.1 |
| 20260906124508 | 23 | 203 | 0.0 | 0.0 | 0.00 | 0.00 | 0.00 | 83 | 1016.0 |
| 20260906124004 | 22 | 207 | 0.0 | 0.0 | 0.00 | 0.00 | 0.00 | 85 | 1015.9 |
| 20260906123507 | 22 | 207 | 0.0 | 0.0 | 0.00 | 0.00 | 0.00 | 85 | 1015.8 |
| 20260906123016 | 22 | 207 | 0.0 | 0.0 | 0.00 | 0.00 | 0.00 | 85 | 1015.8 |
| 20260906122511 | 22 | 207 | 0.0 | 0.0 | 0.00 | 0.00 | 0.00 | 85 | 1015.8 |
| 20260906122009 | 22 | 207 | 0.0 | 0.0 | 0.00 | 0.00 | 0.00 | 85 | 1015.8 |
| 20260906121527 | 22 | 207 | 0.0 | 0.0 | 0.00 | 0.00 | 0.00 | 85 | 1015.7 |
| 20260906121011 | 22 | 207 | 0.0 | 0.0 | 0.00 | 0.00 | 0.00 | 85 | 1015.6 |
| 20260906120514 | 22 | 207 | 0.0 | 0.0 | 0.00 | 0.00 | 0.00 | 85 | 1015.6 |
| 20260906120032 | 22 | 207 | 0.0 | 0.0 | 0.00 | 0.00 | 0.00 | 85 | 1015.5 |
| 20260906115515 | 22 | 207 | 0.0 | 0.0 | 0.00 | 0.00 | 0.00 | 85 | 1015.4 |
| 20260906115014 | 22 | 207 | 0.0 | 0.0 | 0.00 | 0.00 | 0.00 | 84 | 1015.4 |
| 20260906114510 | 22 | 207 | 0.0 | 0.0 | 0.00 | 0.00 | 0.00 | 84 | 1015.4 |
| 20260906114003 | 22 | 226 | 0.0 | 0.0 | 0.00 | 0.00 | 0.00 | 84 | 1015.4 |
| 20260906113507 | 22 | 226 | 0.0 | 0.0 | 0.00 | 0.00 | 0.00 | 84 | 1015.3 |
| 20260906113021 | 22 | 226 | 0.0 | 0.0 | 0.00 | 0.00 | 0.00 | 84 | 1015.1 |
| 20260906112508 | 22 | 226 | 0.0 | 0.0 | 0.00 | 0.00 | 0.00 | 84 | 1015.0 |
| 20260906112008 | 22 | 226 | 0.0 | 0.0 | 0.00 | 0.00 | 0.00 | 84 | 1014.9 |
| 20260906111522 | 22 | 226 | 0.0 | 0.0 | 0.00 | 0.00 | 0.00 | 84 | 1014.9 |
| 20260906111009 | 22 | 226 | 0.0 | 0.0 | 0.00 | 0.00 | 0.00 | 84 | 1014.9 |
| 20260906110510 | 22 | 226 | 0.0 | 0.0 | 0.00 | 0.00 | 0.00 | 84 | 1014.9 |
| 20260906110029 | 22 | 226 | 0.0 | 0.0 | 0.00 | 0.00 | 0.00 | 83 | 1015.0 |
| 20260906105511 | 22 | 226 | 0.0 | 0.0 | 0.00 | 0.00 | 0.00 | 83 | 1014.9 |
| 20260906105016 | 22 | 226 | 0.0 | 0.0 | 0.00 | 0.00 | 0.00 | 83 | 1015.0 |
| 20260906104535 | 22 | 226 | 0.0 | 0.0 | 0.00 | 0.00 | 0.00 | 83 | 1014.9 |
| 20260906104016 | 22 | 226 | 0.0 | 0.0 | 0.00 | 0.00 | 0.00 | 83 | 1014.9 |
| 20260906103516 | 22 | 226 | 0.0 | 0.0 | 0.00 | 0.00 | 0.00 | 82 | 1014.9 |
| 20260906103012 | 22 | 226 | 0.0 | 0.0 | 0.00 | 0.00 | 0.00 | 82 | 1014.8 |
| 20260906102504 | 22 | 226 | 0.0 | 0.0 | 0.00 | 0.00 | 0.00 | 82 | 1014.9 |
| 20260906102004 | 22 | 226 | 0.0 | 0.0 | 0.00 | 0.00 | 0.00 | 82 | 1014.8 |
| 20260906101516 | 22 | 226 | 0.0 | 0.0 | 0.00 | 0.00 | 0.00 | 83 | 1014.7 |
| 20260906101009 | 22 | 226 | 0.0 | 0.0 | 0.00 | 0.00 | 0.00 | 83 | 1014.6 |
| 20260906100513 | 22 | 334 | 0.0 | 0.0 | 0.00 | 0.00 | 0.00 | 83 | 1014.6 |
| 20260906100022 | 22 | 334 | 0.0 | 0.0 | 0.00 | 0.00 | 0.00 | 83 | 1014.7 |
| 20260906095509 | 22 | 334 | 0.0 | 0.0 | 0.00 | 0.00 | 0.00 | 83 | 1014.6 |
| 20260906095012 | 22 | 334 | 0.0 | 0.0 | 0.00 | 0.00 | 0.00 | 83 | 1014.6 |
| 20260906094536 | 22 | 334 | 0.0 | 0.0 | 0.00 | 0.00 | 0.00 | 83 | 1014.6 |
| 20260906094012 | 22 | 334 | 0.0 | 0.0 | 0.00 | 0.00 | 0.00 | 83 | 1014.8 |
| 20260906093518 | 22 | 334 | 0.0 | 0.0 | 0.00 | 0.00 | 0.00 | 82 | 1014.9 |
| 20260906093036 | 22 | 334 | 0.0 | 0.0 | 0.00 | 0.00 | 0.00 | 82 | 1014.8 |
| 20260906092513 | 22 | 334 | 0.0 | 0.0 | 0.00 | 0.00 | 0.00 | 82 | 1014.9 |
| 20260906092018 | 22 | 334 | 0.0 | 1.6 | 0.00 | 0.00 | 0.00 | 82 | 1015.0 |
| 20260906091511 | 22 | 334 | 0.0 | 1.6 | 0.00 | 0.00 | 0.00 | 82 | 1015.0 |
| 20260906091007 | 22 | 334 | 0.0 | 1.6 | 0.00 | 0.00 | 0.00 | 81 | 1015.0 |
| 20260906090507 | 22 | 334 | 0.0 | 0.0 | 0.00 | 0.00 | 0.00 | 81 | 1015.0 |
| 20260906090017 | 23 | 335 | 0.0 | 0.0 | 0.00 | 0.00 | 0.00 | 80 | 1015.0 |
| 20260906085509 | 23 | 334 | 0.0 | 0.0 | 0.00 | 0.00 | 0.00 | 80 | 1015.0 |
| 20260906085010 | 23 | 335 | 0.0 | 3.2 | 0.00 | 0.00 | 0.00 | 79 | 1015.0 |
| 20260906084542 | 23 | 338 | 0.0 | 3.2 | 0.00 | 0.00 | 0.00 | 79 | 1015.0 |
| 20260906084010 | 23 | 110 | 0.0 | 0.0 | 0.00 | 0.00 | 0.00 | 79 | 1015.1 |
| 20260906083514 | 23 | 101 | 0.0 | 4.8 | 0.00 | 0.00 | 0.00 | 79 | 1015.1 |
| 20260906083035 | 23 | 158 | 0.0 | 4.8 | 0.00 | 0.00 | 0.00 | 78 | 1015.0 |
| 20260906082513 | 23 | 228 | 0.0 | 4.8 | 0.00 | 0.00 | 0.00 | 77 | 1015.0 |
| 20260906082016 | 23 | 252 | 0.0 | 4.8 | 0.00 | 0.00 | 0.00 | 77 | 1015.1 |
| 20260906081531 | 23 | 233 | 0.0 | 6.4 | 0.00 | 0.00 | 0.00 | 76 | 1015.1 |
| 20260906081019 | 23 | 146 | 0.0 | 6.4 | 0.00 | 0.00 | 0.00 | 76 | 1015.2 |
| 20260906080518 | 24 | 145 | 3.2 | 8.0 | 0.00 | 0.00 | 0.00 | 76 | 1015.3 |
| 20260906080024 | 24 | 110 | 1.6 | 8.0 | 0.00 | 0.00 | 0.00 | 76 | 1015.3 |
| 20260906075510 | 23 | 163 | 3.2 | 4.8 | 0.00 | 0.00 | 0.00 | 75 | 1015.3 |
| 20260906075006 | 24 | 143 | 1.6 | 4.8 | 0.00 | 0.00 | 0.00 | 75 | 1015.4 |
| 20260906074524 | 24 | 244 | 1.6 | 8.0 | 0.00 | 0.00 | 0.00 | 74 | 1015.5 |
| 20260906074010 | 24 | 247 | 1.6 | 8.0 | 0.00 | 0.00 | 0.00 | 74 | 1015.7 |
| 20260906073512 | 24 | 134 | 3.2 | 8.0 | 0.00 | 0.00 | 0.00 | 73 | 1015.8 |
| 20260906073037 | 24 | 233 | 1.6 | 12.9 | 0.00 | 0.00 | 0.00 | 73 | 1015.8 |
| 20260906072512 | 25 | 177 | 4.8 | 12.9 | 0.00 | 0.00 | 0.00 | 73 | 1015.9 |
| 20260906072014 | 25 | 229 | 3.2 | 9.7 | 0.00 | 0.00 | 0.00 | 73 | 1016.0 |
| 20260906071531 | 25 | 240 | 3.2 | 9.7 | 0.00 | 0.00 | 0.00 | 73 | 1016.1 |
| 20260906071016 | 25 | 174 | 3.2 | 6.4 | 0.00 | 0.00 | 0.00 | 73 | 1016.1 |
| 20260906070515 | 25 | 162 | 3.2 | 6.4 | 0.00 | 0.00 | 0.00 | 72 | 1015.9 |
| 20260906070034 | 25 | 237 | 3.2 | 6.4 | 0.00 | 0.00 | 0.00 | 72 | 1015.9 |
| 20260906065518 | 25 | 163 | 1.6 | 6.4 | 0.00 | 0.00 | 0.00 | 72 | 1015.9 |
| 20260906065018 | 25 | 138 | 0.0 | 8.0 | 0.00 | 0.00 | 0.00 | 72 | 1015.9 |
| 20260906064517 | 25 | 151 | 1.6 | 8.0 | 0.00 | 0.00 | 0.00 | 73 | 1015.9 |
| 20260906064006 | 25 | 171 | 3.2 | 8.0 | 0.00 | 0.00 | 0.00 | 73 | 1016.0 |
| 20260906063507 | 25 | 155 | 3.2 | 8.0 | 0.00 | 0.00 | 0.00 | 73 | 1016.0 |
| 20260906063027 | 25 | 214 | 3.2 | 6.4 | 0.00 | 0.00 | 0.00 | 74 | 1016.0 |
| 20260906062510 | 25 | 214 | 3.2 | 6.4 | 0.00 | 0.00 | 0.00 | 74 | 1016.0 |
| 20260906062014 | 25 | 169 | 1.6 | 6.4 | 0.00 | 0.00 | 0.00 | 74 | 1016.1 |
| 20260906061528 | 25 | 158 | 1.6 | 6.4 | 0.00 | 0.00 | 0.00 | 73 | 1016.1 |
| 20260906061015 | 25 | 219 | 0.0 | 6.4 | 0.00 | 0.00 | 0.00 | 73 | 1016.2 |
| 20260906060517 | 25 | 231 | 0.0 | 6.4 | 0.00 | 0.00 | 0.00 | 73 | 1016.3 |
| 20260906060036 | 25 | 164 | 1.6 | 6.4 | 0.00 | 0.00 | 0.00 | 72 | 1016.4 |
| 20260906055517 | 25 | 214 | 1.6 | 9.7 | 0.00 | 0.00 | 0.00 | 72 | 1016.4 |
| 20260906055016 | 26 | 121 | 1.6 | 9.7 | 0.00 | 0.00 | 0.00 | 71 | 1016.4 |
| 20260906054534 | 26 | 153 | 1.6 | 8.0 | 0.00 | 0.00 | 0.00 | 71 | 1016.3 |
| 20260906054018 | 26 | 145 | 3.2 | 8.0 | 0.00 | 0.00 | 0.00 | 70 | 1016.4 |
| 20260906053520 | 26 | 131 | 0.0 | 8.0 | 0.00 | 0.00 | 0.00 | 69 | 1016.4 |
| 20260906053020 | 26 | 187 | 1.6 | 12.9 | 0.00 | 0.00 | 0.00 | 68 | 1016.5 |
| 20260906052510 | 26 | 170 | 3.2 | 12.9 | 0.00 | 0.00 | 0.00 | 68 | 1016.4 |
| 20260906052010 | 26 | 149 | 1.6 | 9.7 | 0.00 | 0.00 | 0.00 | 67 | 1016.3 |
| 20260906051525 | 26 | 194 | 3.2 | 9.7 | 0.00 | 0.00 | 0.00 | 67 | 1016.3 |
| 20260906051014 | 26 | 153 | 3.2 | 9.7 | 0.00 | 0.00 | 0.00 | 66 | 1016.3 |
| 20260906050511 | 26 | 153 | 3.2 | 8.0 | 0.00 | 0.00 | 0.00 | 65 | 1016.3 |
| 20260906050033 | 26 | 203 | 3.2 | 8.0 | 0.00 | 0.00 | 0.00 | 65 | 1016.3 |
| 20260906045514 | 26 | 165 | 1.6 | 8.0 | 0.00 | 0.00 | 0.00 | 64 | 1016.2 |
| 20260906045016 | 26 | 160 | 3.2 | 8.0 | 0.00 | 0.00 | 0.00 | 63 | 1016.3 |
| 20260906044532 | 26 | 161 | 1.6 | 4.8 | 0.00 | 0.00 | 0.00 | 63 | 1016.3 |
| 20260906044016 | 26 | 131 | 0.0 | 4.8 | 0.00 | 0.00 | 0.00 | 62 | 1016.3 |
| 20260906043519 | 26 | 106 | 0.0 | 4.8 | 0.00 | 0.00 | 0.00 | 62 | 1016.3 |
| 20260906043034 | 26 | 109 | 0.0 | 3.2 | 0.00 | 0.00 | 0.00 | 61 | 1016.3 |
| 20260906042520 | 26 | 132 | 0.0 | 3.2 | 0.00 | 0.00 | 0.00 | 61 | 1016.3 |
| 20260906042007 | 26 | 156 | 0.0 | 3.2 | 0.00 | 0.00 | 0.00 | 61 | 1016.3 |
| 20260906041523 | 26 | 118 | 1.6 | 3.2 | 0.00 | 0.00 | 0.00 | 60 | 1016.2 |
| 20260906041016 | 26 | 134 | 0.0 | 4.8 | 0.00 | 0.00 | 0.00 | 59 | 1016.2 |
| 20260906040513 | 27 | 175 | 1.6 | 4.8 | 0.00 | 0.00 | 0.00 | 59 | 1016.1 |
| 20260906040031 | 27 | 135 | 1.6 | 4.8 | 0.00 | 0.00 | 0.00 | 58 | 1016.1 |
| 20260906035514 | 27 | 115 | 0.0 | 4.8 | 0.00 | 0.00 | 0.00 | 57 | 1016.0 |
| 20260906035014 | 27 | 105 | 3.2 | 4.8 | 0.00 | 0.00 | 0.00 | 57 | 1015.9 |
| 20260906034542 | 27 | 106 | 0.0 | 3.2 | 0.00 | 0.00 | 0.00 | 58 | 1015.8 |
| 20260906034015 | 27 | 103 | 1.6 | 3.2 | 0.00 | 0.00 | 0.00 | 58 | 1015.8 |
| 20260906033513 | 27 | 130 | 0.0 | 0.0 | 0.00 | 0.00 | 0.00 | 58 | 1015.8 |
| 20260906033035 | 27 | 139 | 0.0 | 0.0 | 0.00 | 0.00 | 0.00 | 58 | 1015.6 |
| 20260906032516 | 27 | 139 | 0.0 | 0.0 | 0.00 | 0.00 | 0.00 | 58 | 1015.5 |
| 20260906032016 | 27 | 139 | 0.0 | 0.0 | 0.00 | 0.00 | 0.00 | 58 | 1015.4 |
| 20260906031534 | 27 | 139 | 0.0 | 0.0 | 0.00 | 0.00 | 0.00 | 58 | 1015.3 |
| 20260906031016 | 27 | 139 | 0.0 | 0.0 | 0.00 | 0.00 | 0.00 | 58 | 1015.4 |
| 20260906030510 | 27 | 139 | 0.0 | 0.0 | 0.00 | 0.00 | 0.00 | 57 | 1015.3 |
| 20260906030027 | 27 | 139 | 0.0 | 0.0 | 0.00 | 0.00 | 0.00 | 57 | 1015.1 |
| 20260906025513 | 27 | 139 | 0.0 | 0.0 | 0.00 | 0.00 | 0.00 | 56 | 1015.0 |
| 20260906025016 | 27 | 139 | 0.0 | 1.6 | 0.00 | 0.00 | 0.00 | 56 | 1015.0 |
| 20260906024529 | 27 | 139 | 0.0 | 1.6 | 0.00 | 0.00 | 0.00 | 56 | 1014.9 |
| 20260906024016 | 27 | 139 | 0.0 | 1.6 | 0.00 | 0.00 | 0.00 | 56 | 1014.9 |
| 20260906023516 | 27 | 139 | 0.0 | 0.0 | 0.00 | 0.00 | 0.00 | 56 | 1014.7 |
| 20260906023030 | 27 | 139 | 0.0 | 0.0 | 0.00 | 0.00 | 0.00 | 56 | 1014.6 |
| 20260906022514 | 27 | 139 | 0.0 | 1.6 | 0.00 | 0.00 | 0.00 | 55 | 1014.5 |
| 20260906022019 | 28 | 139 | 0.0 | 1.6 | 0.00 | 0.00 | 0.00 | 55 | 1014.4 |
| 20260906021531 | 28 | 139 | 0.0 | 1.6 | 0.00 | 0.00 | 0.00 | 54 | 1014.3 |
| 20260906021018 | 28 | 128 | 0.0 | 1.6 | 0.00 | 0.00 | 0.00 | 54 | 1014.3 |
| 20260906020518 | 28 | 131 | 0.0 | 0.0 | 0.00 | 0.00 | 0.00 | 54 | 1014.3 |
| 20260906020044 | 28 | 131 | 0.0 | 0.0 | 0.00 | 0.00 | 0.00 | 53 | 1014.3 |
| 20260906015518 | 28 | 129 | 0.0 | 0.0 | 0.00 | 0.00 | 0.00 | 53 | 1014.2 |
| 20260906015011 | 28 | 129 | 0.0 | 3.2 | 0.00 | 0.00 | 0.00 | 53 | 1014.1 |
| 20260906014540 | 29 | 129 | 0.0 | 3.2 | 0.00 | 0.00 | 0.00 | 53 | 1014.1 |
| 20260906014018 | 29 | 127 | 0.0 | 3.2 | 0.00 | 0.00 | 0.00 | 52 | 1014.0 |
| 20260906013514 | 29 | 115 | 0.0 | 3.2 | 0.00 | 0.00 | 0.00 | 52 | 1014.1 |
| 20260906013033 | 29 | 111 | 0.0 | 4.8 | 0.00 | 0.00 | 0.00 | 52 | 1014.0 |
| 20260906012514 | 30 | 131 | 1.6 | 4.8 | 0.00 | 0.00 | 0.00 | 52 | 1013.9 |
| 20260906012017 | 30 | 96 | 1.6 | 4.8 | 0.00 | 0.00 | 0.00 | 51 | 1013.9 |
| 20260906011540 | 30 | 120 | 1.6 | 9.7 | 0.00 | 0.00 | 0.00 | 51 | 1013.9 |
| 20260906011018 | 30 | 134 | 3.2 | 9.7 | 0.00 | 0.00 | 0.00 | 51 | 1013.8 |
| 20260906010516 | 30 | 110 | 1.6 | 9.7 | 0.00 | 0.00 | 0.00 | 51 | 1013.8 |
| 20260906010032 | 30 | 117 | 3.2 | 8.0 | 0.00 | 0.00 | 0.00 | 51 | 1013.8 |
| 20260906005515 | 30 | 104 | 1.6 | 8.0 | 0.00 | 0.00 | 0.00 | 50 | 1013.8 |
| 20260906005018 | 30 | 100 | 1.6 | 8.0 | 0.00 | 0.00 | 0.00 | 50 | 1013.7 |
| 20260906004538 | 30 | 107 | 3.2 | 8.0 | 0.00 | 0.00 | 0.00 | 50 | 1013.8 |
| 20260906004015 | 31 | 179 | 3.2 | 9.7 | 0.00 | 0.00 | 0.00 | 50 | 1013.8 |
| 20260906003512 | 31 | 108 | 3.2 | 11.3 | 0.00 | 0.00 | 0.00 | 50 | 1013.8 |
| 20260906003043 | 31 | 132 | 4.8 | 16.1 | 0.00 | 0.00 | 0.00 | 49 | 1013.7 |
| 20260906002514 | 31 | 94 | 6.4 | 16.1 | 0.00 | 0.00 | 0.00 | 49 | 1013.7 |
| 20260906002018 | 31 | 124 | 4.8 | 12.9 | 0.00 | 0.00 | 0.00 | 47 | 1013.7 |
| 20260906001531 | 31 | 225 | 1.6 | 11.3 | 0.00 | 0.00 | 0.00 | 48 | 1013.6 |
| 20260906001016 | 31 | 92 | 4.8 | 11.3 | 0.00 | 0.00 | 0.00 | 47 | 1013.6 |
| 20260906000520 | 31 | 139 | 4.8 | 14.5 | 0.00 | 0.00 | 0.00 | 47 | 1013.6 |
| 20260906000037 | 31 | 146 | 3.2 | 14.5 | 0.00 | 0.00 | 0.00 | 47 | 1013.6 |
| 20260905235515 | 31 | 114 | 1.6 | 11.3 | 0.00 | 0.00 | 0.00 | 47 | 1013.6 |
| 20260905235017 | 31 | 114 | 6.4 | 11.3 | 0.00 | 0.00 | 0.00 | 47 | 1013.6 |
| 20260905234517 | 32 | 137 | 3.2 | 11.3 | 0.00 | 0.00 | 0.00 | 47 | 1013.6 |
| 20260905234009 | 32 | 124 | 6.4 | 12.9 | 0.00 | 0.00 | 0.00 | 47 | 1013.7 |
| 20260905233510 | 32 | 81 | 4.8 | 12.9 | 0.00 | 0.00 | 0.00 | 47 | 1013.7 |
| 20260905233025 | 32 | 99 | 4.8 | 17.7 | 0.00 | 0.00 | 0.00 | 46 | 1013.7 |